Jump to content


AMERICAN AIRLINES FLIGHT AA1394 FLOWN ON 07-27-2017 BY CAPTAIN JIM BOERMAN

Pilot StatsCaptain Jim Boerman (LDP136) • 4,511.1 total hours • 1,375 total flights [View Logbook]
FLIGHT DETAILS
StatusReceived and approved on 2017-07-27 at 14:07:45
Origin AirportTampa Intl (KTPA) • Tampa, Florida, United States (26 feet MSL)
Filed Flight PlanKTPA TEPEE J75 RSW J614 KUBIC J75 OHOFO KMIA
Destination AirportMiami Intl (KMIA) • Miami, Florida, United States (8 feet MSL)
Alternate AirportFt Lauderdale-Hollywood Intl (KFLL) • Ft Lauderdale, Florida, United States (9 feet MSL)
AirlineAmerican Airlines
AircraftAirbus A319 (319 / A319)
FS Aircraft UsedFeelthere A319 CFM American Airlines _2013
Cruising AltitudeFL350
Distance Flown178 nautical miles
Passengers Onboard55 passengers (44.35% full)
DEPARTURE DETAILS
Time Out13:45:06
Taxi Data108,358 lbs total with 8,288 lbs of fuel onboard
Takeoff Data14:02:49 (18 minutes after leaving gate/ramp) • 107,168 lbs total • 6° pitch at 131 knots
Departure METARKTPA 271653Z 24006KT 10SM SCT030 BKN250 32/25 A3003 RMK AO2 SLP167 T03220250
ARRIVAL DETAILS
Landing Data14:39:39 • 103,658 lbs total • 3° pitch doing 106 knots at a rate of -394.47 feet/minute with 3,066 lbs of fuel onboard
Time In14:48:03 (8 minutes after landing)
Ramp Weight103,136 lbs total
Total Fuel Used5,222 lbs
Total Block Time01:01:31 (1 hour) while 26 minutes were spent on the ground
Arrival METARKMIA 271753Z 10011KT 10SM SCT030 SCT039 SCT049 BKN250 33/24 A3000 RMK AO2 LTG DSNT SW SLP160 CB DSNT SW T03330239 10339 20294 58013
MISCELLANEOUS DETAILS
LiveDISPATCH Version4.8.3.1
FS Version
FSUIPC Version4.93
OS VersionWindows 7 32-bit
Screen Resolution1920 x 1080
Pilot's CommentsNo Comments Reported
FLIGHT MAP